Terminal Aerodrome Forecast
Issued by NWS

Home | Current Version | Previous Version | Text Only | Print | Product List | Glossary On
Versions: 1 2 3 4 5 6 7 8 9 10 11 12
453
FTUS45 KABQ 130539
TAFSAF
TAF
KSAF 130539Z 1306/1406 36006KT P6SM SKC
      TEMPO 1310/1314 01012KT
     FM132000 25009KT P6SM SKC
     FM140130 34007KT P6SM FEW180 SCT250=

USA.gov is the U.S. government's official web portal to all federal, state and local government web resources and services.